Time;durP1;ratioP1;P1;durP2;ratioP2;P2;SDS_P1;SDS_P2;PMS_P1;PMS_P2;Temp;Humidity;BMP_temperature;BMP_pressure;BME280_temperature;BME280_humidity;BME280_pressure;Samples;Min_cycle;Max_cycle;Signal;HPM_P1;HPM_P2
2021/10/23 07:00:12;;;;;;;1.00;0.97;;;;;;;7.61;85.72;99845.72;5929114;23;20019;-69
2021/10/23 07:02:42;;;;;;;0.82;0.82;;;;;;;7.65;83.21;99838.03;4860362;29;20049;-69
2021/10/23 07:05:12;;;;;;;0.70;0.70;;;;;;;7.74;83.46;99847.59;4861377;29;20165;-69
2021/10/23 07:07:38;;;;;;;2.05;1.63;;;;;;;7.88;82.31;99851.19;4861329;29;20033;-69
2021/10/23 07:10:05;;;;;;;1.10;1.00;;;;;;;7.96;82.24;99841.78;4861335;29;20025;-69
2021/10/23 07:12:31;;;;;;;0.50;0.50;;;;;;;8.06;82.11;99840.16;4868452;29;20029;-69
2021/10/23 07:14:56;;;;;;;1.15;1.00;;;;;;;8.12;81.70;99840.25;4878115;29;20474;-69
2021/10/23 07:17:22;;;;;;;0.73;0.73;;;;;;;8.00;80.59;99850.44;4879806;29;20037;-69
2021/10/23 07:19:47;;;;;;;3.13;0.60;;;;;;;8.19;79.87;99847.19;4879559;29;20115;-69
2021/10/23 07:22:13;;;;;;;1.17;0.65;;;;;;;8.47;79.13;99852.59;4879343;29;20028;-69
2021/10/23 07:24:38;;;;;;;0.70;0.70;;;;;;;8.75;78.33;99843.31;4879657;29;20116;-69
2021/10/23 07:27:03;;;;;;;2.15;0.70;;;;;;;8.88;77.03;99855.47;4879658;29;20112;-70
2021/10/23 07:29:29;;;;;;;0.95;0.95;;;;;;;9.14;74.91;99863.38;4879404;29;20025;-69
2021/10/23 07:31:54;;;;;;;0.90;0.80;;;;;;;9.45;73.16;99854.03;4879237;29;20033;-69
2021/10/23 07:34:19;;;;;;;0.82;0.65;;;;;;;9.53;73.21;99852.34;4879453;29;20040;-69
2021/10/23 07:36:45;;;;;;;0.65;0.60;;;;;;;9.34;73.49;99855.72;4879260;29;20124;-69
2021/10/23 07:39:10;;;;;;;0.80;0.80;;;;;;;9.33;73.53;99859.19;4879541;29;20035;-69
2021/10/23 07:41:38;;;;;;;0.50;0.50;;;;;;;9.25;74.58;99860.84;4878456;29;20032;-69
2021/10/23 07:44:04;;;;;;;0.80;0.80;;;;;;;9.49;74.65;99873.88;4871391;29;20533;-69
2021/10/23 07:46:30;;;;;;;0.60;0.60;;;;;;;10.39;70.90;99868.06;4879214;29;20061;-69
2021/10/23 07:48:55;;;;;;;0.70;0.70;;;;;;;11.92;64.17;99867.69;4879029;29;20475;-69
2021/10/23 07:51:20;;;;;;;0.50;0.50;;;;;;;12.41;61.96;99888.13;4878863;29;20065;-69
2021/10/23 07:53:47;;;;;;;0.70;0.70;;;;;;;14.28;56.91;99875.63;4879301;29;20459;-70
2021/10/23 07:56:12;;;;;;;0.90;0.55;;;;;;;17.30;47.21;99867.44;4879018;29;20503;-70
2021/10/23 07:58:38;;;;;;;1.42;0.70;;;;;;;19.42;42.10;99867.66;4878980;29;20036;-70
2021/10/23 08:01:04;;;;;;;5.07;1.00;;;;;;;20.43;38.60;99861.97;4878849;29;20063;-70
2021/10/23 08:03:29;;;;;;;0.82;0.40;;;;;;;21.68;35.55;99863.63;4878758;29;20033;-70
2021/10/23 08:05:54;;;;;;;5.65;1.33;;;;;;;23.00;34.21;99863.38;4878868;29;20037;-70
2021/10/23 08:08:20;;;;;;;0.47;0.47;;;;;;;24.82;30.64;99866.56;4878846;29;20123;-71
2021/10/23 08:10:45;;;;;;;1.98;0.60;;;;;;;25.71;29.01;99865.59;4878322;29;20080;-70
2021/10/23 08:13:10;;;;;;;0.45;0.43;;;;;;;26.66;27.34;99870.97;4870535;29;20032;-70
2021/10/23 08:15:37;;;;;;;1.30;1.20;;;;;;;25.58;28.39;99881.47;4878763;29;20025;-70
2021/10/23 08:18:03;;;;;;;2.65;0.68;;;;;;;26.46;27.20;99879.44;4878672;29;20040;-69
2021/10/23 08:20:33;;;;;;;1.02;0.50;;;;;;;24.79;30.17;99880.00;4878505;29;20029;-70
2021/10/23 08:23:00;;;;;;;0.68;0.40;;;;;;;22.94;32.32;99884.00;4878431;29;20025;-70
2021/10/23 08:25:26;;;;;;;1.52;0.95;;;;;;;24.51;29.84;99882.53;4878666;29;20081;-70
2021/10/23 08:27:51;;;;;;;0.65;0.50;;;;;;;23.25;31.54;99877.94;4878531;29;20603;-70
2021/10/23 08:30:18;;;;;;;1.95;1.13;;;;;;;25.18;28.81;99889.19;4878465;29;20017;-70
2021/10/23 08:32:44;;;;;;;1.10;0.50;;;;;;;25.23;28.98;99880.97;4878162;29;20044;-70
2021/10/23 08:35:14;;;;;;;3.45;1.15;;;;;;;26.70;26.41;99877.78;4878450;29;20033;-70
2021/10/23 08:37:41;;;;;;;0.50;0.50;;;;;;;26.75;26.76;99886.31;4878462;29;20063;-70
2021/10/23 08:40:08;;;;;;;1.48;1.17;;;;;;;24.59;29.13;99897.06;4878437;29;20053;-70
2021/10/23 08:42:33;;;;;;;0.45;0.40;;;;;;;24.99;29.77;99885.91;4871664;29;20120;-70
2021/10/23 08:45:00;;;;;;;1.20;0.90;;;;;;;22.69;32.58;99890.47;4876639;29;20108;-70
2021/10/23 08:47:28;;;;;;;1.55;0.98;;;;;;;21.21;35.39;99895.59;4878264;29;20024;-70
2021/10/23 08:49:59;;;;;;;0.73;0.73;;;;;;;19.61;38.46;99897.63;4878298;29;20072;-70
2021/10/23 08:52:27;;;;;;;2.83;0.43;;;;;;;20.52;36.12;99889.75;4877709;29;20516;-70
2021/10/23 08:54:52;;;;;;;3.28;1.05;;;;;;;20.50;36.44;99891.56;4878259;29;20108;-70
2021/10/23 08:57:18;;;;;;;1.80;0.60;;;;;;;19.81;37.72;99896.03;4878297;29;20107;-70
2021/10/23 08:59:44;;;;;;;0.43;0.43;;;;;;;18.93;40.01;99906.16;4878129;29;20558;-70
2021/10/23 09:02:10;;;;;;;1.75;0.57;;;;;;;18.40;41.31;99911.38;4877865;29;20120;-70
2021/10/23 09:04:36;;;;;;;0.45;0.45;;;;;;;18.91;40.29;99908.00;4878182;29;20490;-70
2021/10/23 09:07:07;;;;;;;0.57;0.57;;;;;;;21.77;35.19;99892.22;4878190;29;20090;-70
2021/10/23 09:09:43;;;;;;;0.93;0.47;;;;;;;20.10;37.97;99903.66;4878085;29;20022;-70
2021/10/23 09:12:20;;;;;;;0.68;0.60;;;;;;;21.00;36.75;99901.78;4877388;29;20401;-70
2021/10/23 09:14:45;;;;;;;4.22;2.17;;;;;;;21.39;35.45;99899.22;4862780;29;20547;-70
2021/10/23 09:17:14;;;;;;;1.15;1.02;;;;;;;22.44;32.65;99897.91;4859632;29;20034;-70
2021/10/23 09:19:46;;;;;;;2.05;1.13;;;;;;;22.79;34.31;99897.00;4859452;29;20033;-71
2021/10/23 09:22:30;;;;;;;1.40;0.52;;;;;;;25.06;29.60;99889.91;4859384;29;20037;-70
2021/10/23 09:25:13;;;;;;;4.05;1.40;;;;;;;23.55;30.75;99896.66;4859295;29;20567;-70
2021/10/23 09:28:05;;;;;;;2.38;0.77;;;;;;;25.10;28.84;99897.63;4859659;29;20026;-70
2021/10/23 09:30:37;;;;;;;0.50;0.50;;;;;;;25.28;28.60;99900.09;4859344;29;20025;-70
2021/10/23 09:33:06;;;;;;;1.13;0.47;;;;;;;24.75;29.76;99896.16;4859284;29;20038;-71
2021/10/23 09:35:40;;;;;;;2.60;0.60;;;;;;;26.74;27.36;99895.25;4859310;29;20120;-71
2021/10/23 09:38:07;;;;;;;3.83;1.17;;;;;;;27.06;26.50;99889.53;4859557;29;20155;-71
2021/10/23 09:40:33;;;;;;;4.25;0.40;;;;;;;26.52;27.30;99889.66;4859305;29;20432;-71
2021/10/23 09:43:30;;;;;;;0.95;0.45;;;;;;;25.10;28.48;99897.63;4868200;29;20025;-71
2021/10/23 09:45:55;;;;;;;2.58;1.48;;;;;;;26.20;27.61;99889.91;4877978;29;20033;-70
2021/10/23 09:48:37;;;;;;;10.65;3.70;;;;;;;25.04;28.67;99897.09;4877873;29;20089;-70
2021/10/23 09:51:31;;;;;;;0.75;0.45;;;;;;;26.23;27.01;99897.69;4877658;29;20701;-71
2021/10/23 09:54:02;;;;;;;1.80;1.13;;;;;;;20.00;36.59;99911.06;4877707;29;20043;-71
2021/10/23 09:56:35;;;;;;;0.40;0.40;;;;;;;24.52;29.85;99905.47;4877860;29;20444;-70
2021/10/23 09:59:10;;;;;;;0.57;0.50;;;;;;;23.49;31.19;99907.53;4877774;29;20041;-70
2021/10/23 10:01:45;;;;;;;2.05;1.67;;;;;;;19.15;39.39;99912.41;4877405;29;20033;-70
2021/10/23 10:04:12;;;;;;;0.38;0.38;;;;;;;21.06;37.08;99906.78;4878378;29;20111;-70
2021/10/23 10:06:45;;;;;;;0.60;0.60;;;;;;;15.83;44.29;99931.16;4880908;29;20029;-70
2021/10/23 10:09:11;;;;;;;0.68;0.40;;;;;;;17.01;44.55;99928.44;4881050;29;20100;-70
2021/10/23 10:11:38;;;;;;;0.60;0.57;;;;;;;13.97;51.59;99941.19;4880065;29;20498;-70
2021/10/23 10:14:08;;;;;;;0.30;0.30;;;;;;;14.57;51.33;99941.25;4873031;29;20032;-70
2021/10/23 10:16:34;;;;;;;0.43;0.43;;;;;;;12.21;58.35;99952.38;4880861;29;20025;-70
2021/10/23 10:19:00;;;;;;;0.45;0.45;;;;;;;12.11;59.31;99945.50;4880656;29;20040;-71
2021/10/23 10:21:32;;;;;;;3.60;0.57;;;;;;;12.35;57.39;99953.16;4880840;29;20033;-70
2021/10/23 10:23:57;;;;;;;0.35;0.35;;;;;;;11.92;58.10;99955.13;4880621;29;20028;-70
2021/10/23 10:26:28;;;;;;;0.65;0.55;;;;;;;14.65;51.05;99942.00;4880644;29;20033;-70
2021/10/23 10:29:13;;;;;;;0.93;0.88;;;;;;;19.42;39.23;99920.22;4880556;29;20033;-70
2021/10/23 10:31:59;;;;;;;1.65;0.80;;;;;;;22.64;30.93;99908.34;4880246;29;20033;-71
2021/10/23 10:43:01;;;;;;;1.55;0.60;;;;;;;24.76;27.40;99909.34;4873446;29;20040;-70
2021/10/23 10:45:29;;;;;;;1.50;0.38;;;;;;;23.54;29.32;99910.81;4843499;29;20030;-70
2021/10/23 10:48:09;;;;;;;7.37;1.70;;;;;;;22.44;31.32;99911.13;4843395;29;20112;-70
2021/10/23 10:50:40;;;;;;;0.43;0.40;;;;;;;20.64;36.26;99923.47;4843161;29;20022;-70
2021/10/23 10:53:12;;;;;;;0.52;0.52;;;;;;;20.83;35.04;99909.53;4843311;29;20112;-71
2021/10/23 10:55:39;;;;;;;0.63;0.52;;;;;;;17.59;41.53;99917.25;4843446;29;20026;-70
2021/10/23 10:58:06;;;;;;;0.88;0.50;;;;;;;20.67;36.41;99899.66;4841882;29;20032;-70
2021/10/23 11:00:48;;;;;;;4.25;1.08;;;;;;;19.37;38.55;99907.25;4842852;29;20113;-70
2021/10/23 11:03:37;;;;;;;1.38;1.00;;;;;;;17.75;40.30;99909.88;4843058;29;20041;-70
2021/10/23 11:06:33;;;;;;;0.85;0.70;;;;;;;14.17;49.58;99927.91;4843069;29;20025;-70
2021/10/23 11:09:10;;;;;;;0.50;0.50;;;;;;;16.37;44.37;99915.16;4843134;29;20034;-70
2021/10/23 11:11:45;;;;;;;0.52;0.45;;;;;;;15.55;45.38;99916.00;4855722;29;20394;-70
2021/10/23 11:14:19;;;;;;;6.82;0.80;;;;;;;13.80;48.47;99922.34;4872061;29;20068;-70
2021/10/23 11:16:58;;;;;;;0.60;0.60;;;;;;;13.35;48.88;99917.66;4879515;29;20121;-70
2021/10/23 11:19:27;;;;;;;0.47;0.47;;;;;;;12.82;47.47;99920.75;4879707;29;20423;-70
2021/10/23 11:22:00;;;;;;;0.75;0.75;;;;;;;12.88;46.62;99923.28;4879483;29;20029;-70
2021/10/23 11:24:44;;;;;;;0.52;0.52;;;;;;;12.56;46.41;99919.19;4879814;29;20036;-70
2021/10/23 11:27:26;;;;;;;0.65;0.65;;;;;;;12.71;47.80;99914.75;4879996;29;20068;-70
2021/10/23 11:30:04;;;;;;;5.18;1.08;;;;;;;13.10;47.51;99911.81;4879308;29;20023;-70
2021/10/23 11:32:29;;;;;;;0.63;0.63;;;;;;;13.45;46.21;99908.00;4879342;29;20037;-71
2021/10/23 11:34:55;;;;;;;0.52;0.52;;;;;;;13.50;44.53;99908.81;4879453;29;20039;-70
2021/10/23 11:37:24;;;;;;;2.05;0.52;;;;;;;15.09;39.17;99906.47;4879345;29;20371;-71
2021/10/23 11:40:10;;;;;;;0.80;0.80;;;;;;;17.69;36.27;99886.41;4879758;29;20025;-70
2021/10/23 11:42:44;;;;;;;0.75;0.75;;;;;;;21.90;28.68;99884.56;4872062;29;20033;-70
2021/10/23 11:45:28;;;;;;;0.30;0.30;;;;;;;22.30;28.01;99873.03;4878293;29;20040;-70
2021/10/23 11:48:00;;;;;;;0.25;0.25;;;;;;;23.21;27.35;99882.56;4879233;29;20032;-71
2021/10/23 11:50:29;;;;;;;0.20;0.20;;;;;;;22.96;27.46;99887.41;4879145;29;20037;-70
2021/10/23 11:52:58;;;;;;;3.95;1.27;;;;;;;24.02;26.35;99886.13;4878772;29;20033;-71
2021/10/23 11:55:38;;;;;;;4.13;0.98;;;;;;;23.97;26.01;99892.63;4879138;29;20550;-71
2021/10/23 11:58:08;;;;;;;0.65;0.65;;;;;;;21.29;28.83;99890.00;4879012;29;20559;-70
2021/10/23 12:00:37;;;;;;;0.30;0.30;;;;;;;21.08;30.38;99888.28;4878896;29;20033;-70
2021/10/23 12:03:05;;;;;;;0.75;0.30;;;;;;;19.70;31.14;99899.94;4878701;29;20497;-70
2021/10/23 12:05:38;;;;;;;1.33;0.70;;;;;;;19.14;32.97;99892.28;4878826;29;20130;-70
2021/10/23 12:08:29;;;;;;;0.52;0.52;;;;;;;17.44;35.99;99892.34;4878922;29;20032;-70
2021/10/23 12:11:02;;;;;;;1.55;0.73;;;;;;;14.41;40.77;99916.28;4878109;29;20549;-70
2021/10/23 12:13:43;;;;;;;0.73;0.63;;;;;;;15.09;40.17;99914.28;4870861;29;20496;-70
2021/10/23 12:16:10;;;;;;;0.75;0.75;;;;;;;14.96;42.39;99907.56;4878796;29;20108;-70
2021/10/23 12:18:43;;;;;;;0.40;0.40;;;;;;;13.20;46.16;99916.91;4878644;29;20028;-70
2021/10/23 12:21:19;;;;;;;0.63;0.50;;;;;;;13.03;45.92;99920.53;4877352;29;20025;-71
2021/10/23 12:23:50;;;;;;;0.68;0.47;;;;;;;12.85;47.88;99911.16;4878584;29;20064;-70
2021/10/23 12:26:18;;;;;;;0.68;0.68;;;;;;;12.09;49.37;99917.81;4878163;29;20056;-70
2021/10/23 12:29:07;;;;;;;2.35;1.15;;;;;;;12.44;48.63;99913.25;4878273;29;20111;-69
2021/10/23 12:31:58;;;;;;;1.92;0.90;;;;;;;12.77;48.52;99917.31;4878369;29;20037;-70
2021/10/23 12:34:25;;;;;;;1.75;0.60;;;;;;;12.48;48.23;99914.97;4878377;29;20084;-70
2021/10/23 12:36:52;;;;;;;0.65;0.65;;;;;;;12.55;49.22;99917.47;4878659;29;20064;-69
2021/10/23 12:39:24;;;;;;;1.48;0.80;;;;;;;12.91;47.49;99901.56;4878391;29;20108;-69
2021/10/23 12:41:50;;;;;;;0.57;0.57;;;;;;;13.85;45.46;99897.06;4877426;29;20410;-69
2021/10/23 12:44:17;;;;;;;0.82;0.63;;;;;;;14.30;44.21;99886.88;4871206;29;20112;-69
2021/10/23 12:46:43;;;;;;;0.50;0.50;;;;;;;14.70;44.12;99888.88;4878476;29;20025;-69
2021/10/23 12:49:08;;;;;;;0.60;0.60;;;;;;;14.71;43.07;99885.41;4878407;29;20033;-69
2021/10/23 12:51:33;;;;;;;0.40;0.40;;;;;;;14.85;43.82;99888.63;4878137;29;20033;-69
2021/10/23 12:53:59;;;;;;;1.55;0.77;;;;;;;14.90;43.93;99892.03;4878304;29;20483;-70
2021/10/23 12:56:24;;;;;;;0.50;0.50;;;;;;;15.09;44.16;99892.56;4878337;29;20060;-69
2021/10/23 12:58:49;;;;;;;0.30;0.30;;;;;;;14.88;42.30;99886.81;4878191;29;20127;-69
2021/10/23 13:01:15;;;;;;;0.40;0.40;;;;;;;13.62;43.99;99895.63;4877888;29;20040;-70
2021/10/23 13:03:41;;;;;;;0.43;0.43;;;;;;;13.52;44.55;99888.81;4878155;29;20104;-72
2021/10/23 13:06:06;;;;;;;0.52;0.52;;;;;;;14.23;44.05;99887.88;4878321;29;20531;-72
2021/10/23 13:08:31;;;;;;;0.30;0.30;;;;;;;14.33;44.07;99884.22;4878219;29;20083;-72
2021/10/23 13:10:57;;;;;;;1.75;0.85;;;;;;;13.31;45.05;99887.31;4877366;29;20448;-72
2021/10/23 13:13:22;;;;;;;0.57;0.57;;;;;;;13.27;45.85;99892.56;4922027;23;20044;-67
2021/10/23 13:15:47;;;;;;;0.30;0.30;;;;;;;13.68;47.26;99883.41;4859613;29;20447;-67
2021/10/23 13:18:13;;;;;;;0.65;0.60;;;;;;;13.49;46.63;99894.06;4859452;29;20060;-68
2021/10/23 13:20:38;;;;;;;0.65;0.65;;;;;;;13.41;45.43;99890.69;4859488;29;20082;-67
2021/10/23 13:23:04;;;;;;;0.30;0.30;;;;;;;13.50;46.14;99890.56;4859464;29;20025;-67
2021/10/23 13:25:29;;;;;;;0.32;0.32;;;;;;;13.19;46.36;99889.16;4859393;29;20029;-67
2021/10/23 13:27:54;;;;;;;3.00;1.15;;;;;;;13.40;45.70;99891.56;4859623;29;20033;-67
2021/10/23 13:30:20;;;;;;;0.60;0.60;;;;;;;13.48;45.46;99896.66;4859310;29;20376;-67
2021/10/23 13:32:46;;;;;;;1.00;0.93;;;;;;;13.26;47.05;99896.06;4859244;29;20052;-68
2021/10/23 13:35:12;;;;;;;0.47;0.47;;;;;;;13.71;45.86;99899.00;4859187;29;20479;-68
2021/10/23 13:37:38;;;;;;;0.70;0.70;;;;;;;13.37;48.07;99904.59;4859479;29;20044;-68
2021/10/23 13:40:05;;;;;;;7.07;1.02;;;;;;;13.85;44.97;99899.69;4861523;29;20467;-67
2021/10/23 13:42:31;;;;;;;2.83;0.70;;;;;;;13.82;44.65;99899.72;4870144;29;20056;-67
2021/10/23 13:44:56;;;;;;;0.32;0.32;;;;;;;12.97;47.04;99905.00;4879345;29;20468;-71
2021/10/23 13:47:22;;;;;;;0.45;0.45;;;;;;;13.44;47.42;99900.19;4881214;29;20041;-71
2021/10/23 13:49:47;;;;;;;0.30;0.30;;;;;;;13.28;45.92;99904.72;4881304;29;20474;-71
2021/10/23 13:52:12;;;;;;;0.85;0.40;;;;;;;13.04;47.03;99911.00;4881243;29;20553;-71
2021/10/23 13:54:38;;;;;;;0.63;0.63;;;;;;;12.98;46.92;99908.44;4881223;29;20566;-71
2021/10/23 13:57:03;;;;;;;0.38;0.38;;;;;;;13.07;47.43;99906.63;4881219;29;20041;-71
2021/10/23 13:59:28;;;;;;;0.47;0.47;;;;;;;13.32;45.50;99901.19;4881200;29;20479;-71
2021/10/23 14:01:54;;;;;;;0.60;0.60;;;;;;;13.48;46.11;99905.34;4858618;29;20053;-71
2021/10/23 14:04:20;;;;;;;0.40;0.40;;;;;;;13.75;45.24;99908.50;4894296;29;20060;-71
2021/10/23 14:06:45;;;;;;;0.60;0.60;;;;;;;13.45;45.19;99915.81;4880827;29;20116;-71
2021/10/23 14:09:10;;;;;;;0.60;0.50;;;;;;;12.99;46.68;99918.84;4880929;29;20044;-71
2021/10/23 14:11:36;;;;;;;0.43;0.43;;;;;;;13.06;46.80;99915.31;4880151;29;20029;-71
2021/10/23 14:14:01;;;;;;;3.45;0.60;;;;;;;12.79;47.03;99918.16;4872998;29;20452;-71
2021/10/23 14:16:27;;;;;;;3.40;1.00;;;;;;;12.95;47.36;99919.75;4880685;29;20033;-71
2021/10/23 14:18:56;;;;;;;0.45;0.45;;;;;;;13.47;46.43;99918.38;4880903;29;20033;-71
2021/10/23 14:21:21;;;;;;;0.38;0.38;;;;;;;13.21;45.82;99919.50;4880698;29;20025;-71
2021/10/23 14:23:47;;;;;;;0.75;0.68;;;;;;;13.32;44.41;99906.41;4880970;29;20439;-71
2021/10/23 14:26:14;;;;;;;0.30;0.30;;;;;;;13.75;44.15;99905.91;4880627;29;20033;-71
2021/10/23 14:28:39;;;;;;;2.53;0.47;;;;;;;13.60;44.17;99914.75;4880707;29;20037;-71
2021/10/23 14:31:10;;;;;;;0.40;0.40;;;;;;;13.88;44.42;99913.53;4880425;29;20447;-71
2021/10/23 14:33:37;;;;;;;0.40;0.40;;;;;;;13.70;43.81;99918.97;4880397;29;20371;-71
2021/10/23 14:36:04;;;;;;;0.45;0.45;;;;;;;12.81;47.25;99924.19;4880574;29;20064;-71
2021/10/23 14:38:29;;;;;;;0.90;0.32;;;;;;;12.61;46.77;99932.16;4880494;29;20512;-72
2021/10/23 14:40:55;;;;;;;0.40;0.40;;;;;;;13.00;47.13;99920.56;4879876;29;20085;-71
2021/10/23 14:43:20;;;;;;;0.47;0.47;;;;;;;13.04;47.86;99930.06;4872289;29;20161;-71
2021/10/23 14:45:45;;;;;;;0.38;0.38;;;;;;;12.98;46.92;99930.13;4880271;29;20052;-71
2021/10/23 14:48:10;;;;;;;0.43;0.43;;;;;;;13.05;47.16;99931.81;4880176;29;20502;-71
2021/10/23 14:50:36;;;;;;;0.50;0.50;;;;;;;12.80;48.07;99938.09;4879548;29;20423;-71
2021/10/23 14:53:01;;;;;;;0.32;0.32;;;;;;;12.61;48.29;99938.22;4880127;29;20505;-71
2021/10/23 14:55:26;;;;;;;1.05;0.60;;;;;;;12.18;49.71;99931.59;4880069;29;20383;-71
2021/10/23 14:57:52;;;;;;;0.32;0.32;;;;;;;11.89;51.55;99935.19;4880169;29;20025;-71
2021/10/23 15:00:17;;;;;;;0.47;0.47;;;;;;;11.86;51.28;99932.66;4879887;29;20021;-71
2021/10/23 15:02:43;;;;;;;0.70;0.47;;;;;;;11.88;50.43;99932.63;4879840;29;20033;-71
2021/10/23 15:05:08;;;;;;;0.60;0.60;;;;;;;11.67;51.42;99933.56;4879827;29;20073;-71
2021/10/23 15:07:33;;;;;;;0.73;0.73;;;;;;;11.41;52.32;99931.91;4879966;29;20033;-71
2021/10/23 15:09:59;;;;;;;0.50;0.50;;;;;;;11.42;52.77;99933.63;4879849;29;20514;-71
2021/10/23 15:12:24;;;;;;;0.45;0.45;;;;;;;11.46;53.08;99929.28;4874278;29;20029;-71
2021/10/23 15:14:49;;;;;;;0.40;0.40;;;;;;;11.51;53.18;99936.22;4876631;29;20122;-71
2021/10/23 15:17:15;;;;;;;0.70;0.70;;;;;;;11.47;52.07;99937.09;4879767;29;20498;-71
2021/10/23 15:19:40;;;;;;;0.70;0.70;;;;;;;11.25;52.12;99930.22;4879614;29;20063;-71
2021/10/23 15:22:05;;;;;;;0.60;0.60;;;;;;;11.25;52.34;99932.81;4893947;29;20308;-71
2021/10/23 15:24:31;;;;;;;1.15;1.15;;;;;;;11.27;52.21;99938.88;4879597;29;20486;-71
2021/10/23 15:26:56;;;;;;;0.40;0.40;;;;;;;11.22;53.19;99931.09;4879634;29;20123;-71
2021/10/23 15:29:21;;;;;;;0.85;0.85;;;;;;;11.22;52.95;99935.44;4879955;29;20852;-71
2021/10/23 15:31:51;;;;;;;0.57;0.57;;;;;;;11.20;53.34;99937.13;4879462;29;20036;-71
2021/10/23 15:34:17;;;;;;;;;;;;;;;10.90;53.83;99938.03;4878556;29;20025;-71
2021/10/23 15:36:42;;;;;;;0.60;0.60;;;;;;;11.04;54.60;99941.50;4879487;29;20300;-71
2021/10/23 15:39:09;;;;;;;1.00;0.90;;;;;;;10.89;54.92;99938.91;4879495;29;20103;-71
2021/10/23 15:42:04;;;;;;;0.85;0.85;;;;;;;10.82;53.85;99935.44;4878498;29;20032;-71
2021/10/23 15:44:29;;;;;;;1.25;0.47;;;;;;;10.86;54.97;99936.31;4868358;29;20035;-71
2021/10/23 15:46:56;;;;;;;0.40;0.40;;;;;;;10.79;55.11;99935.47;4879305;29;20472;-71
2021/10/23 15:49:23;;;;;;;0.50;0.50;;;;;;;10.72;55.21;99933.72;4879229;29;20423;-71
2021/10/23 15:51:48;;;;;;;0.57;0.57;;;;;;;10.53;56.51;99933.72;4878827;29;20118;-71
2021/10/23 15:54:15;;;;;;;1.52;0.88;;;;;;;10.48;55.97;99939.75;4878946;29;20060;-71
2021/10/23 15:56:43;;;;;;;0.45;0.45;;;;;;;10.45;56.41;99940.63;4878864;29;20029;-71
2021/10/23 15:59:10;;;;;;;0.50;0.50;;;;;;;10.36;56.89;99945.78;4879178;29;20081;-71
2021/10/23 16:01:35;;;;;;;0.65;0.65;;;;;;;10.30;57.01;99938.03;4878814;29;20025;-71
2021/10/23 16:04:01;;;;;;;0.85;0.73;;;;;;;10.20;57.43;99939.69;4878888;29;20056;-71
2021/10/23 16:06:26;;;;;;;0.90;0.60;;;;;;;10.17;57.73;99938.81;4878803;29;20032;-71
2021/10/23 16:08:52;;;;;;;0.45;0.45;;;;;;;10.12;58.09;99940.53;4877045;29;20037;-73
2021/10/23 16:11:18;;;;;;;0.50;0.50;;;;;;;9.92;59.11;99949.09;4863867;29;20021;-71
2021/10/23 16:13:44;;;;;;;0.52;0.50;;;;;;;9.83;61.13;99943.88;4878307;29;20548;-71
2021/10/23 16:16:10;;;;;;;1.20;1.17;;;;;;;9.70;61.99;99940.38;4869745;29;20439;-71
2021/10/23 16:18:35;;;;;;;0.60;0.60;;;;;;;9.45;62.60;99943.72;4870867;29;20029;-71
2021/10/23 16:21:01;;;;;;;1.05;0.80;;;;;;;9.34;63.18;99948.84;4878786;29;20029;-71
2021/10/23 16:23:27;;;;;;;0.98;0.93;;;;;;;9.16;64.56;99944.41;4870646;29;20020;-71
2021/10/23 16:25:53;;;;;;;1.05;0.93;;;;;;;9.00;65.41;99953.78;4870015;29;20112;-71
2021/10/23 16:28:18;;;;;;;0.80;0.80;;;;;;;8.87;66.00;99954.53;4867763;29;20380;-70
2021/10/23 16:30:44;;;;;;;1.27;0.77;;;;;;;8.75;66.72;99957.00;4867531;29;20166;-71
2021/10/23 16:33:10;;;;;;;0.63;0.63;;;;;;;8.62;67.30;99955.19;4870102;29;20109;-71
2021/10/23 16:35:36;;;;;;;0.82;0.82;;;;;;;8.52;68.39;99963.72;4878231;29;20060;-71
2021/10/23 16:38:01;;;;;;;0.98;0.90;;;;;;;8.36;69.07;99966.13;4878292;29;20109;-71
2021/10/23 16:40:27;;;;;;;0.98;0.90;;;;;;;8.30;69.44;99958.28;4878285;29;20076;-70
2021/10/23 16:42:52;;;;;;;0.70;0.70;;;;;;;8.21;69.06;99958.19;4869808;29;20547;-71
2021/10/23 16:45:17;;;;;;;0.77;0.77;;;;;;;8.11;69.95;99967.56;4878690;29;20037;-70
2021/10/23 16:47:43;;;;;;;3.05;1.95;;;;;;;8.09;69.16;99958.06;4878221;29;20024;-70
2021/10/23 16:50:08;;;;;;;0.60;0.60;;;;;;;8.01;69.68;99962.28;4878279;29;20121;-71
2021/10/23 16:52:35;;;;;;;0.63;0.63;;;;;;;7.90;70.01;99967.31;4878164;29;20025;-71
2021/10/23 16:55:01;;;;;;;0.80;0.75;;;;;;;7.88;70.86;99969.88;4878145;29;20534;-71
2021/10/23 16:57:26;;;;;;;0.82;0.80;;;;;;;7.88;71.31;99964.72;4878286;29;20053;-71
2021/10/23 16:59:53;;;;;;;1.08;1.00;;;;;;;7.79;72.24;99962.03;4878143;29;20040;-71
2021/10/23 17:02:18;;;;;;;1.23;1.23;;;;;;;7.86;73.59;99968.97;4878100;29;20107;-71
2021/10/23 17:04:44;;;;;;;1.48;1.48;;;;;;;7.73;75.20;99977.41;4878034;29;20119;-71
2021/10/23 17:07:09;;;;;;;1.50;1.25;;;;;;;7.58;74.89;99977.22;4878136;29;20470;-71
2021/10/23 17:09:35;;;;;;;2.08;1.85;;;;;;;7.52;75.74;99971.97;4877840;29;20080;-71
2021/10/23 17:12:00;;;;;;;3.13;1.83;;;;;;;7.42;76.25;99979.59;4875565;29;20057;-71
2021/10/23 17:14:26;;;;;;;2.08;1.27;;;;;;;7.34;77.09;99975.16;4874537;29;20029;-71
2021/10/23 17:16:52;;;;;;;2.45;2.05;;;;;;;7.30;76.98;99978.53;4882008;29;20460;-71
2021/10/23 17:19:17;;;;;;;1.55;1.45;;;;;;;7.15;77.75;99979.19;4881969;29;20104;-71
2021/10/23 17:21:43;;;;;;;1.60;1.45;;;;;;;7.10;78.26;99981.69;4881660;29;20405;-71
2021/10/23 17:24:08;;;;;;;5.95;2.08;;;;;;;7.04;78.55;99976.44;4881752;29;20032;-71
2021/10/23 17:26:37;;;;;;;2.20;1.77;;;;;;;6.94;79.19;99979.72;4881884;29;20029;-71
2021/10/23 17:29:08;;;;;;;4.63;2.13;;;;;;;6.94;79.47;99980.59;4881809;29;20039;-71
2021/10/23 17:31:34;;;;;;;2.90;1.95;;;;;;;6.92;79.86;99979.72;4881391;29;20097;-71
2021/10/23 17:33:59;;;;;;;1.27;1.27;;;;;;;6.86;79.45;99982.16;4881529;29;20479;-71
2021/10/23 17:36:25;;;;;;;1.83;1.73;;;;;;;6.72;80.35;99988.81;4881424;29;20081;-70
2021/10/23 17:38:50;;;;;;;3.13;1.65;;;;;;;6.50;81.52;99986.69;4881497;29;20032;-70
2021/10/23 17:41:16;;;;;;;1.83;1.15;;;;;;;6.54;82.02;99991.06;4880756;29;20059;-70
2021/10/23 17:43:41;;;;;;;0.88;0.88;;;;;;;6.40;82.40;99993.41;4873517;29;20025;-70
2021/10/23 17:46:07;;;;;;;2.40;2.22;;;;;;;6.35;82.69;99987.28;4881274;29;20029;-70
2021/10/23 17:48:33;;;;;;;1.80;1.67;;;;;;;6.42;82.58;99999.41;4880143;29;20048;-70
2021/10/23 17:50:58;;;;;;;3.78;3.25;;;;;;;6.39;82.56;100004.53;4881136;29;20036;-71
2021/10/23 17:53:23;;;;;;;3.70;1.90;;;;;;;6.45;83.04;100002.06;4881026;29;20115;-71
2021/10/23 17:55:49;;;;;;;2.28;2.03;;;;;;;6.42;83.10;100000.28;4881248;29;20020;-70
2021/10/23 17:58:14;;;;;;;3.53;2.65;;;;;;;6.32;82.70;99998.38;4881181;29;20053;-71
2021/10/23 18:00:40;;;;;;;3.47;3.17;;;;;;;6.42;85.43;99997.72;4881193;29;20032;-71
2021/10/23 18:03:05;;;;;;;1.92;1.83;;;;;;;6.52;84.16;99998.75;4880845;29;20025;-71
2021/10/23 18:05:31;;;;;;;8.75;2.58;;;;;;;6.55;82.31;100000.53;4880956;29;20039;-70
2021/10/23 18:08:01;;;;;;;3.97;2.30;;;;;;;6.32;82.32;100002.66;4880875;29;20032;-72
2021/10/23 18:10:26;;;;;;;6.97;1.42;;;;;;;6.01;84.00;100004.66;4881268;29;20032;-71
2021/10/23 18:12:52;;;;;;;3.15;2.10;;;;;;;5.93;84.91;100003.63;4872188;29;20081;-73
2021/10/23 18:15:17;;;;;;;0.68;0.68;;;;;;;5.86;85.50;100010.31;4880682;29;20123;-67
2021/10/23 18:17:53;;;;;;;1.27;1.27;;;;;;;5.71;85.94;100002.28;4880812;29;20028;-67
2021/10/23 18:20:18;;;;;;;2.15;1.27;;;;;;;5.70;85.99;100010.81;4880752;29;20029;-68
2021/10/23 18:22:44;;;;;;;1.88;1.77;;;;;;;5.54;86.79;100014.75;4880712;29;20543;-67
2021/10/23 18:25:11;;;;;;;1.60;1.50;;;;;;;5.41;87.82;100015.31;4879518;29;20033;-73
2021/10/23 18:27:38;;;;;;;1.75;1.55;;;;;;;5.40;88.15;100011.03;4880558;29;20120;-72
2021/10/23 18:30:06;;;;;;;3.95;2.08;;;;;;;5.37;88.37;100014.41;4881038;29;20124;-70
2021/10/23 18:32:33;;;;;;;2.08;1.48;;;;;;;5.39;88.19;100010.16;4880423;29;20044;-71
2021/10/23 18:34:58;;;;;;;3.20;1.70;;;;;;;5.31;88.50;100003.97;4880326;29;20108;-71
2021/10/23 18:37:24;;;;;;;2.55;1.98;;;;;;;5.23;88.96;100008.06;4880505;29;20116;-71
2021/10/23 18:39:50;;;;;;;2.63;2.17;;;;;;;5.22;88.95;100005.44;4880348;29;20093;-67
2021/10/23 18:42:15;;;;;;;7.43;3.60;;;;;;;5.10;89.88;100000.91;4876230;29;20025;-72
2021/10/23 18:44:44;;;;;;;2.55;2.03;;;;;;;5.08;90.14;100010.28;4876129;29;20036;-73
2021/10/23 18:47:14;;;;;;;1.60;1.50;;;;;;;5.05;90.53;100005.06;4880403;29;20029;-72
2021/10/23 18:49:41;;;;;;;;;;;;;;;4.94;90.98;100014.22;4880564;29;20534;-72